createdAt,value
2023-05-12T00:00:46.092Z,546.00
2023-05-12T00:01:46.167Z,548.00
2023-05-12T00:02:46.304Z,550.00
2023-05-12T00:03:46.671Z,552.00
2023-05-12T00:04:46.465Z,552.00
2023-05-12T00:05:46.488Z,551.00
2023-05-12T00:06:46.572Z,551.00
2023-05-12T00:07:46.647Z,553.00
2023-05-12T00:08:46.715Z,553.00
2023-05-12T00:09:46.787Z,553.00
2023-05-12T00:10:46.867Z,551.00
2023-05-12T00:11:46.955Z,551.00
2023-05-12T00:12:46.967Z,551.00
2023-05-12T00:13:47.030Z,550.00
2023-05-12T00:14:46.998Z,551.00
2023-05-12T00:15:47.008Z,552.00
2023-05-12T00:16:47.170Z,551.00
2023-05-12T00:17:47.108Z,551.00
2023-05-12T00:18:47.091Z,550.00
2023-05-12T00:19:47.122Z,547.00
2023-05-12T00:20:47.147Z,546.00
2023-05-12T00:21:47.126Z,545.00
2023-05-12T00:22:47.148Z,546.00
2023-05-12T00:23:47.180Z,546.00
2023-05-12T00:24:47.194Z,548.00
2023-05-12T00:25:47.224Z,547.00
2023-05-12T00:26:47.235Z,547.00
2023-05-12T00:27:47.262Z,544.00
2023-05-12T00:28:47.305Z,545.00
2023-05-12T00:29:47.301Z,546.00
2023-05-12T00:30:47.337Z,546.00
2023-05-12T00:31:47.368Z,547.00
2023-05-12T00:32:47.392Z,547.00
2023-05-12T00:33:47.438Z,548.00
2023-05-12T00:34:47.520Z,548.00
2023-05-12T00:35:47.616Z,546.00
2023-05-12T00:36:47.688Z,548.00
2023-05-12T00:37:47.764Z,549.00
2023-05-12T00:38:47.912Z,545.00
2023-05-12T00:39:47.930Z,543.00
2023-05-12T00:40:48.013Z,543.00
2023-05-12T00:41:48.101Z,544.00
2023-05-12T00:42:48.186Z,545.00
2023-05-12T00:43:48.242Z,547.00
2023-05-12T00:44:48.322Z,548.00
2023-05-12T00:45:48.445Z,546.00
2023-05-12T00:46:48.493Z,545.00
2023-05-12T00:47:48.633Z,547.00
2023-05-12T00:48:48.657Z,546.00
2023-05-12T00:49:48.748Z,544.00
2023-05-12T00:50:48.807Z,545.00
2023-05-12T00:51:48.904Z,547.00
2023-05-12T00:52:48.978Z,547.00
2023-05-12T00:53:50.523Z,545.00
2023-05-12T00:54:49.122Z,545.00
2023-05-12T00:55:49.199Z,547.00
2023-05-12T00:56:49.265Z,549.00
2023-05-12T00:57:49.358Z,549.00
2023-05-12T00:58:49.415Z,548.00
2023-05-12T00:59:49.499Z,548.00
2023-05-12T01:00:49.607Z,549.00
2023-05-12T01:01:49.690Z,548.00
2023-05-12T01:02:49.833Z,548.00
2023-05-12T01:03:49.861Z,543.00
2023-05-12T01:04:49.936Z,542.00
2023-05-12T01:05:50.013Z,543.00
2023-05-12T01:06:50.065Z,544.00
2023-05-12T01:07:50.145Z,542.00
2023-05-12T01:08:50.227Z,542.00
2023-05-12T01:09:50.305Z,544.00
2023-05-12T01:10:50.395Z,542.00
2023-05-12T01:11:50.483Z,540.00
2023-05-12T01:12:50.549Z,542.00
2023-05-12T01:13:50.649Z,541.00
2023-05-12T01:14:50.724Z,543.00
2023-05-12T01:15:50.824Z,544.00
2023-05-12T01:16:50.917Z,546.00
2023-05-12T01:17:51.077Z,546.00
2023-05-12T01:18:51.192Z,544.00
2023-05-12T01:19:51.173Z,542.00
2023-05-12T01:20:51.236Z,544.00
2023-05-12T01:21:51.411Z,542.00
2023-05-12T01:22:51.517Z,543.00
2023-05-12T01:23:51.521Z,541.00
2023-05-12T01:24:51.557Z,541.00
2023-05-12T01:25:51.725Z,541.00
2023-05-12T01:26:51.737Z,541.00
2023-05-12T01:27:51.837Z,539.00
2023-05-12T01:28:51.909Z,539.00
2023-05-12T01:29:52.106Z,537.00
2023-05-12T01:30:52.169Z,536.00
2023-05-12T01:31:52.156Z,537.00
2023-05-12T01:32:53.058Z,537.00
2023-05-12T01:33:53.037Z,538.00
2023-05-12T01:34:52.441Z,539.00
2023-05-12T01:35:52.502Z,536.00
2023-05-12T01:36:52.624Z,538.00
2023-05-12T01:37:52.671Z,538.00
2023-05-12T01:38:52.745Z,537.00
2023-05-12T01:39:52.883Z,538.00
2023-05-12T01:40:52.909Z,537.00
2023-05-12T01:41:52.985Z,536.00
2023-05-12T01:42:53.083Z,535.00
2023-05-12T01:43:53.158Z,534.00
2023-05-12T01:44:53.231Z,534.00
2023-05-12T01:45:53.348Z,532.00
2023-05-12T01:46:53.491Z,534.00
2023-05-12T01:47:53.503Z,535.00
2023-05-12T01:48:53.569Z,536.00
2023-05-12T01:49:53.644Z,536.00
2023-05-12T01:50:53.739Z,539.00
2023-05-12T01:51:53.817Z,541.00
2023-05-12T01:52:53.906Z,544.00
2023-05-12T01:53:53.991Z,546.00
2023-05-12T01:54:54.080Z,546.00
2023-05-12T01:55:54.188Z,545.00
2023-05-12T01:56:54.254Z,544.00
2023-05-12T01:57:54.332Z,544.00
2023-05-12T01:58:54.432Z,542.00
2023-05-12T01:59:54.505Z,541.00
2023-05-12T02:00:54.615Z,543.00
2023-05-12T02:01:54.815Z,542.00
2023-05-12T02:02:54.856Z,544.00
2023-05-12T02:03:54.980Z,544.00
2023-05-12T02:04:55.086Z,545.00
2023-05-12T02:05:55.197Z,543.00
2023-05-12T02:06:55.125Z,544.00
2023-05-12T02:07:55.191Z,543.00
2023-05-12T02:08:55.303Z,542.00
2023-05-12T02:09:55.377Z,543.00
2023-05-12T02:10:55.479Z,541.00
2023-05-12T02:11:55.550Z,541.00
2023-05-12T02:12:55.632Z,541.00
2023-05-12T02:13:55.658Z,541.00
2023-05-12T02:14:55.677Z,540.00
2023-05-12T02:15:55.722Z,540.00
2023-05-12T02:16:55.712Z,538.00
2023-05-12T02:17:55.766Z,538.00
2023-05-12T02:18:55.806Z,540.00
2023-05-12T02:19:55.770Z,537.00
2023-05-12T02:20:55.775Z,537.00
2023-05-12T02:21:55.791Z,535.00
2023-05-12T02:22:55.836Z,533.00
2023-05-12T02:23:55.920Z,532.00
2023-05-12T02:24:56.020Z,532.00
2023-05-12T02:25:56.098Z,532.00
2023-05-12T02:26:56.250Z,534.00
2023-05-12T02:27:56.273Z,533.00
2023-05-12T02:28:56.345Z,535.00
2023-05-12T02:29:56.441Z,538.00
2023-05-12T02:30:56.531Z,537.00
2023-05-12T02:31:56.660Z,539.00
2023-05-12T02:32:56.742Z,540.00
2023-05-12T02:33:56.766Z,542.00
2023-05-12T02:34:56.852Z,543.00
2023-05-12T02:35:56.937Z,545.00
2023-05-12T02:36:57.019Z,546.00
2023-05-12T02:37:57.101Z,544.00
2023-05-12T02:38:57.190Z,544.00
2023-05-12T02:39:57.348Z,545.00
2023-05-12T02:40:57.345Z,546.00
2023-05-12T02:41:57.438Z,546.00
2023-05-12T02:42:57.531Z,548.00
2023-05-12T02:43:57.635Z,547.00
2023-05-12T02:44:57.700Z,544.00
2023-05-12T02:45:57.841Z,542.00
2023-05-12T02:46:57.881Z,541.00
2023-05-12T02:47:57.995Z,542.00
2023-05-12T02:48:58.048Z,541.00
2023-05-12T02:49:58.139Z,541.00
2023-05-12T02:50:58.248Z,543.00
2023-05-12T02:51:58.325Z,543.00
2023-05-12T02:52:58.413Z,543.00
2023-05-12T02:53:58.504Z,543.00
2023-05-12T02:54:58.590Z,543.00
2023-05-12T02:55:58.687Z,542.00
2023-05-12T02:56:58.775Z,544.00
2023-05-12T02:57:58.863Z,543.00
2023-05-12T02:58:58.965Z,544.00
2023-05-12T02:59:59.057Z,546.00
2023-05-12T03:01:09.380Z,548.00
2023-05-12T03:02:00.299Z,548.00
2023-05-12T03:02:59.318Z,549.00
2023-05-12T03:03:59.222Z,548.00
2023-05-12T03:04:59.250Z,548.00
2023-05-12T03:05:59.309Z,548.00
2023-05-12T03:06:59.304Z,546.00
2023-05-12T03:07:59.344Z,545.00
2023-05-12T03:08:59.345Z,545.00
2023-05-12T03:09:59.392Z,545.00
2023-05-12T03:10:59.460Z,545.00
2023-05-12T03:11:59.560Z,542.00
2023-05-12T03:12:59.629Z,540.00
2023-05-12T03:13:59.714Z,541.00
2023-05-12T03:14:59.797Z,543.00
2023-05-12T03:15:59.832Z,544.00
2023-05-12T03:16:59.895Z,542.00
2023-05-12T03:17:59.921Z,542.00
2023-05-12T03:18:59.945Z,541.00
2023-05-12T03:19:59.932Z,539.00
2023-05-12T03:20:59.943Z,537.00
2023-05-12T03:21:59.981Z,533.00
2023-05-12T03:23:00.019Z,534.00
2023-05-12T03:24:00.017Z,534.00
2023-05-12T03:25:00.068Z,534.00
2023-05-12T03:26:00.157Z,532.00
2023-05-12T03:27:00.265Z,533.00
2023-05-12T03:28:00.393Z,532.00
2023-05-12T03:29:00.446Z,532.00
2023-05-12T03:30:00.557Z,534.00
2023-05-12T03:31:00.664Z,535.00
2023-05-12T03:32:00.729Z,534.00
2023-05-12T03:33:00.917Z,534.00
2023-05-12T03:34:00.902Z,534.00
2023-05-12T03:35:00.934Z,534.00
2023-05-12T03:36:00.955Z,532.00
2023-05-12T03:37:00.996Z,533.00
2023-05-12T03:38:01.017Z,530.00
2023-05-12T03:39:01.031Z,530.00
2023-05-12T03:40:01.050Z,531.00
2023-05-12T03:41:01.074Z,534.00
2023-05-12T03:42:01.107Z,536.00
2023-05-12T03:43:01.144Z,537.00
2023-05-12T03:44:01.205Z,536.00
2023-05-12T03:45:01.297Z,535.00
2023-05-12T03:46:01.440Z,537.00
2023-05-12T03:47:01.733Z,537.00
2023-05-12T03:48:01.606Z,537.00
2023-05-12T03:49:01.638Z,535.00
2023-05-12T03:50:01.734Z,536.00
2023-05-12T03:51:01.855Z,535.00
2023-05-12T03:52:02.004Z,535.00
2023-05-12T03:53:02.026Z,533.00
2023-05-12T03:54:02.088Z,531.00
2023-05-12T03:55:02.191Z,533.00
2023-05-12T03:56:02.267Z,535.00
2023-05-12T03:57:02.362Z,535.00
2023-05-12T03:58:02.453Z,537.00
2023-05-12T03:59:02.544Z,534.00
2023-05-12T04:00:02.636Z,532.00
2023-05-12T04:01:02.714Z,533.00
2023-05-12T04:02:02.911Z,535.00
2023-05-12T04:03:03.009Z,536.00
2023-05-12T04:04:03.034Z,535.00
2023-05-12T04:05:03.096Z,536.00
2023-05-12T04:06:03.169Z,535.00
2023-05-12T04:07:03.272Z,535.00
2023-05-12T04:08:03.368Z,532.00
2023-05-12T04:09:03.444Z,530.00
2023-05-12T04:10:03.550Z,528.00
2023-05-12T04:11:03.625Z,527.00
2023-05-12T04:12:03.705Z,529.00
2023-05-12T04:13:03.836Z,531.00
2023-05-12T04:14:03.882Z,529.00
2023-05-12T04:15:03.980Z,528.00
2023-05-12T04:16:04.092Z,530.00
2023-05-12T04:17:04.150Z,532.00
2023-05-12T04:18:04.289Z,535.00
2023-05-12T04:19:04.411Z,534.00
2023-05-12T04:20:04.404Z,536.00
2023-05-12T04:21:04.523Z,535.00
2023-05-12T04:22:04.579Z,534.00
2023-05-12T04:23:04.633Z,536.00
2023-05-12T04:24:04.715Z,536.00
2023-05-12T04:25:04.818Z,536.00
2023-05-12T04:26:05.003Z,536.00
2023-05-12T04:27:05.016Z,539.00
2023-05-12T04:28:05.124Z,539.00
2023-05-12T04:29:05.274Z,540.00
2023-05-12T04:30:05.287Z,539.00
2023-05-12T04:31:05.315Z,541.00
2023-05-12T04:32:05.434Z,542.00
2023-05-12T04:33:05.519Z,543.00
2023-05-12T04:34:05.581Z,542.00
2023-05-12T04:35:05.674Z,539.00
2023-05-12T04:36:05.756Z,538.00
2023-05-12T04:37:05.896Z,538.00
2023-05-12T04:38:05.945Z,534.00
2023-05-12T04:39:06.048Z,535.00
2023-05-12T04:40:06.125Z,537.00
2023-05-12T04:41:06.228Z,539.00
2023-05-12T04:42:06.313Z,540.00
2023-05-12T04:43:06.403Z,539.00
2023-05-12T04:44:06.500Z,538.00
2023-05-12T04:45:06.650Z,539.00
2023-05-12T04:46:06.744Z,539.00
2023-05-12T04:47:06.783Z,539.00
2023-05-12T04:48:06.913Z,539.00
2023-05-12T04:49:06.959Z,539.00
2023-05-12T04:50:07.065Z,539.00
2023-05-12T04:51:07.138Z,540.00
2023-05-12T04:52:07.239Z,538.00
2023-05-12T04:53:07.310Z,539.00
2023-05-12T04:54:07.403Z,541.00
2023-05-12T04:55:07.501Z,540.00
2023-05-12T04:56:07.536Z,540.00
2023-05-12T04:57:07.554Z,539.00
2023-05-12T04:58:07.562Z,538.00
2023-05-12T04:59:07.592Z,537.00
2023-05-12T05:00:07.616Z,538.00
2023-05-12T05:01:07.732Z,536.00
2023-05-12T05:02:07.660Z,537.00
2023-05-12T05:03:07.772Z,540.00
2023-05-12T05:04:07.760Z,540.00
2023-05-12T05:05:07.848Z,539.00
2023-05-12T05:06:07.938Z,537.00
2023-05-12T05:07:08.008Z,538.00
2023-05-12T05:08:08.101Z,535.00
2023-05-12T05:09:08.186Z,535.00
2023-05-12T05:10:08.288Z,534.00
2023-05-12T05:11:08.381Z,533.00
2023-05-12T05:12:08.475Z,534.00
2023-05-12T05:13:08.567Z,536.00
2023-05-12T05:14:08.599Z,537.00
2023-05-12T05:15:08.612Z,536.00
2023-05-12T05:16:08.718Z,534.00
2023-05-12T05:17:08.672Z,534.00
2023-05-12T05:18:08.748Z,534.00
2023-05-12T05:19:19.207Z,532.00
2023-05-12T05:20:12.408Z,532.00
2023-05-12T05:21:09.864Z,530.00
2023-05-12T05:22:08.837Z,532.00
2023-05-12T05:23:08.826Z,532.00
2023-05-12T05:24:09.261Z,532.00
2023-05-12T05:25:08.875Z,532.00
2023-05-12T05:26:08.929Z,531.00
2023-05-12T05:27:09.676Z,531.00
2023-05-12T05:28:08.954Z,531.00
2023-05-12T05:29:08.987Z,532.00
2023-05-12T05:30:09.019Z,533.00
2023-05-12T05:31:09.546Z,535.00
2023-05-12T05:32:09.099Z,536.00
2023-05-12T05:33:09.101Z,534.00
2023-05-12T05:34:09.204Z,532.00
2023-05-12T05:35:09.141Z,533.00
2023-05-12T05:36:09.248Z,533.00
2023-05-12T05:37:09.212Z,533.00
2023-05-12T05:38:09.246Z,544.00
2023-05-12T05:39:09.297Z,609.00
2023-05-12T05:40:09.308Z,658.00
2023-05-12T05:41:09.437Z,679.00
2023-05-12T05:42:09.397Z,700.00
2023-05-12T05:43:09.445Z,720.00
2023-05-12T05:44:09.467Z,822.00
2023-05-12T05:45:09.571Z,846.00
2023-05-12T05:46:09.630Z,854.00
2023-05-12T05:47:09.837Z,869.00
2023-05-12T05:48:09.898Z,881.00
2023-05-12T05:49:09.812Z,894.00
2023-05-12T05:50:09.897Z,904.00
2023-05-12T05:51:09.951Z,912.00
2023-05-12T05:52:09.995Z,926.00
2023-05-12T05:53:10.024Z,959.00
2023-05-12T05:54:10.256Z,1032.00
2023-05-12T05:55:10.100Z,1081.00
2023-05-12T05:56:10.125Z,1102.00
2023-05-12T05:57:10.194Z,1119.00
2023-05-12T05:58:10.226Z,1149.00
2023-05-12T05:59:10.235Z,1172.00
2023-05-12T06:00:10.301Z,1183.00
2023-05-12T06:01:10.311Z,1194.00
2023-05-12T06:02:10.382Z,1203.00
2023-05-12T06:03:10.458Z,1211.00
2023-05-12T06:04:10.463Z,1264.00
2023-05-12T06:05:10.417Z,1276.00
2023-05-12T06:06:10.554Z,1288.00
2023-05-12T06:07:10.491Z,1302.00
2023-05-12T06:08:10.491Z,1312.00
2023-05-12T06:09:10.513Z,1329.00
2023-05-12T06:10:10.533Z,1344.00
2023-05-12T06:11:10.533Z,1360.00
2023-05-12T06:12:10.561Z,1377.00
2023-05-12T06:13:10.561Z,1389.00
2023-05-12T06:14:10.559Z,1426.00
2023-05-12T06:15:10.566Z,1455.00
2023-05-12T06:16:10.602Z,1476.00
2023-05-12T06:17:10.606Z,1485.00
2023-05-12T06:18:10.656Z,1494.00
2023-05-12T06:19:10.695Z,1503.00
2023-05-12T06:20:10.620Z,1516.00
2023-05-12T06:21:10.620Z,1521.00
2023-05-12T06:22:10.705Z,1532.00
2023-05-12T06:23:10.751Z,1546.00
2023-05-12T06:24:11.774Z,1561.00
2023-05-12T06:25:10.652Z,1669.00
2023-05-12T06:26:10.658Z,1653.00
2023-05-12T06:27:10.661Z,1643.00
2023-05-12T06:28:11.166Z,1648.00
2023-05-12T06:29:10.666Z,1649.00
2023-05-12T06:30:10.681Z,1656.00
2023-05-12T06:31:10.706Z,1654.00
2023-05-12T06:32:10.836Z,1667.00
2023-05-12T06:33:10.732Z,1678.00
2023-05-12T06:34:10.714Z,1690.00
2023-05-12T06:35:10.760Z,1691.00
2023-05-12T06:36:10.731Z,1694.00
2023-05-12T06:37:10.779Z,1700.00
2023-05-12T06:38:10.798Z,1708.00
2023-05-12T06:39:10.793Z,1723.00
2023-05-12T06:40:10.923Z,1734.00
2023-05-12T06:41:10.854Z,1739.00
2023-05-12T06:42:10.880Z,1767.00
2023-05-12T06:43:10.885Z,1778.00
2023-05-12T06:44:10.954Z,1767.00
2023-05-12T06:45:10.963Z,1723.00
2023-05-12T06:46:11.071Z,1660.00
2023-05-12T06:47:11.069Z,1650.00
2023-05-12T06:48:11.141Z,1650.00
2023-05-12T06:49:11.107Z,1644.00
2023-05-12T06:50:11.142Z,1630.00
2023-05-12T06:51:11.170Z,1607.00
2023-05-12T06:52:11.205Z,1492.00
2023-05-12T06:53:11.364Z,1338.00
2023-05-12T06:54:11.279Z,1354.00
2023-05-12T06:55:11.289Z,1347.00
2023-05-12T06:56:11.315Z,1303.00
2023-05-12T06:57:11.348Z,1286.00
2023-05-12T06:58:11.406Z,1249.00
2023-05-12T06:59:11.529Z,1233.00
2023-05-12T07:00:11.392Z,1214.00
2023-05-12T07:01:11.446Z,1158.00
2023-05-12T07:02:11.423Z,1139.00
2023-05-12T07:03:11.497Z,1133.00
2023-05-12T07:04:11.618Z,1119.00
2023-05-12T07:05:11.474Z,1110.00
2023-05-12T07:06:11.525Z,1093.00
2023-05-12T07:07:11.502Z,1078.00
2023-05-12T07:08:11.532Z,1060.00
2023-05-12T07:09:11.544Z,1053.00
2023-05-12T07:10:11.728Z,1042.00
2023-05-12T07:11:11.575Z,1025.00
2023-05-12T07:12:11.635Z,1013.00
2023-05-12T07:13:11.583Z,1008.00
2023-05-12T07:14:11.607Z,999.00
2023-05-12T07:15:11.720Z,989.00
2023-05-12T07:16:11.692Z,986.00
2023-05-12T07:17:11.617Z,978.00
2023-05-12T07:18:11.851Z,972.00
2023-05-12T07:19:11.961Z,965.00
2023-05-12T07:20:11.731Z,961.00
2023-05-12T07:21:11.727Z,951.00
2023-05-12T07:22:11.806Z,951.00
2023-05-12T07:23:12.214Z,939.00
2023-05-12T07:24:11.735Z,932.00
2023-05-12T07:25:11.870Z,927.00
2023-05-12T07:26:11.905Z,924.00
2023-05-12T07:27:11.902Z,917.00
2023-05-12T07:28:11.933Z,912.00
2023-05-12T07:29:13.790Z,908.00
2023-05-12T07:30:11.787Z,905.00
2023-05-12T07:31:11.880Z,902.00
2023-05-12T07:32:11.783Z,897.00
2023-05-12T07:33:11.926Z,891.00
2023-05-12T07:34:11.853Z,885.00
2023-05-12T07:35:11.892Z,878.00
2023-05-12T07:36:12.118Z,872.00
2023-05-12T07:37:11.848Z,886.00
2023-05-12T07:38:11.836Z,869.00
2023-05-12T07:39:11.888Z,858.00
2023-05-12T07:40:11.872Z,882.00
2023-05-12T07:41:11.865Z,862.00
2023-05-12T07:42:11.932Z,867.00
2023-05-12T07:43:11.948Z,914.00
2023-05-12T07:44:12.220Z,924.00
2023-05-12T07:45:11.949Z,931.00
2023-05-12T07:46:11.946Z,934.00
2023-05-12T07:47:12.032Z,936.00
2023-05-12T07:48:12.008Z,942.00
2023-05-12T07:49:12.019Z,947.00
2023-05-12T07:50:12.087Z,953.00
2023-05-12T07:51:12.076Z,960.00
2023-05-12T07:52:12.010Z,979.00
2023-05-12T07:53:12.079Z,997.00
2023-05-12T07:54:12.026Z,1014.00
2023-05-12T07:55:12.103Z,1031.00
2023-05-12T07:56:12.132Z,1038.00
2023-05-12T07:57:12.681Z,1046.00
2023-05-12T07:58:12.089Z,1054.00
2023-05-12T07:59:12.134Z,1051.00
2023-05-12T08:00:12.160Z,1057.00
2023-05-12T08:01:12.075Z,1067.00
2023-05-12T08:02:12.732Z,1071.00
2023-05-12T08:03:12.162Z,1074.00
2023-05-12T08:04:12.352Z,1076.00
2023-05-12T08:05:12.103Z,1077.00
2023-05-12T08:06:12.122Z,1078.00
2023-05-12T08:07:12.148Z,1082.00
2023-05-12T08:08:12.212Z,1088.00
2023-05-12T08:09:12.194Z,1094.00
2023-05-12T08:10:12.251Z,1098.00
2023-05-12T08:11:12.294Z,1098.00
2023-05-12T08:12:12.313Z,1100.00
2023-05-12T08:13:12.332Z,1105.00
2023-05-12T08:14:12.355Z,1109.00
2023-05-12T08:15:12.327Z,1111.00
2023-05-12T08:16:12.590Z,1115.00
2023-05-12T08:17:12.469Z,1109.00
2023-05-12T08:18:12.443Z,1107.00
2023-05-12T08:19:12.354Z,1105.00
2023-05-12T08:20:12.360Z,1104.00
2023-05-12T08:21:12.345Z,1110.00
2023-05-12T08:22:12.372Z,1114.00
2023-05-12T08:23:12.378Z,1116.00
2023-05-12T08:24:12.352Z,1109.00
2023-05-12T08:25:12.844Z,1109.00
2023-05-12T08:26:13.268Z,1107.00
2023-05-12T08:27:12.365Z,1105.00
2023-05-12T08:28:12.732Z,1107.00
2023-05-12T08:29:12.416Z,1104.00
2023-05-12T08:30:12.453Z,1101.00
2023-05-12T08:31:12.677Z,1097.00
2023-05-12T08:32:12.616Z,984.00
2023-05-12T08:33:12.530Z,779.00
2023-05-12T08:34:12.574Z,798.00
2023-05-12T08:35:12.588Z,798.00
2023-05-12T08:36:12.630Z,806.00
2023-05-12T08:37:12.703Z,805.00
2023-05-12T08:38:12.744Z,804.00
2023-05-12T08:39:12.818Z,797.00
2023-05-12T08:40:12.886Z,794.00
2023-05-12T08:41:12.913Z,786.00
2023-05-12T08:42:13.255Z,775.00
2023-05-12T08:43:13.154Z,741.00
2023-05-12T08:44:13.067Z,719.00
2023-05-12T08:45:13.122Z,708.00
2023-05-12T08:46:13.139Z,699.00
2023-05-12T08:47:13.126Z,713.00
2023-05-12T08:48:13.190Z,714.00
2023-05-12T08:49:13.156Z,721.00
2023-05-12T08:50:13.153Z,706.00
2023-05-12T08:51:13.229Z,556.00
2023-05-12T08:52:13.332Z,725.00
2023-05-12T08:53:13.212Z,752.00
2023-05-12T08:54:13.208Z,796.00
2023-05-12T08:55:13.304Z,874.00
2023-05-12T08:57:13.276Z,871.00
2023-05-12T08:58:13.275Z,878.00
2023-05-12T08:59:13.284Z,850.00
2023-05-12T09:00:13.325Z,854.00
2023-05-12T09:01:13.381Z,806.00
2023-05-12T09:02:13.400Z,808.00
2023-05-12T09:03:13.346Z,824.00
2023-05-12T09:04:13.522Z,837.00
2023-05-12T09:05:13.447Z,862.00
2023-05-12T09:06:13.614Z,894.00
2023-05-12T09:07:13.364Z,885.00
2023-05-12T09:08:13.466Z,885.00
2023-05-12T09:09:13.377Z,888.00
2023-05-12T09:10:22.496Z,892.00
2023-05-12T09:11:14.431Z,899.00
2023-05-12T09:12:14.974Z,904.00
2023-05-12T09:13:13.403Z,894.00
2023-05-12T09:14:13.418Z,890.00
2023-05-12T09:15:13.412Z,894.00
2023-05-12T09:16:13.424Z,898.00
2023-05-12T09:17:13.414Z,896.00
2023-05-12T09:18:13.428Z,897.00
2023-05-12T09:19:13.525Z,895.00
2023-05-12T09:20:27.953Z,894.00
2023-05-12T09:21:14.444Z,899.00
2023-05-12T09:22:13.492Z,902.00
2023-05-12T09:23:13.472Z,912.00
2023-05-12T09:24:13.531Z,920.00
2023-05-12T09:25:14.698Z,849.00
2023-05-12T09:26:13.601Z,862.00
2023-05-12T09:27:13.466Z,866.00
2023-05-12T09:28:13.468Z,868.00
2023-05-12T09:29:20.838Z,861.00
2023-05-12T09:30:14.642Z,858.00
2023-05-12T09:31:14.725Z,874.00
2023-05-12T09:32:13.474Z,886.00
2023-05-12T09:33:13.548Z,894.00
2023-05-12T09:34:13.473Z,902.00
2023-05-12T09:35:13.489Z,905.00
2023-05-12T09:36:13.507Z,925.00
2023-05-12T09:37:15.181Z,919.00
2023-05-12T09:38:13.493Z,878.00
2023-05-12T09:39:13.479Z,863.00
2023-05-12T09:40:13.504Z,884.00
2023-05-12T09:41:13.499Z,893.00
2023-05-12T09:42:13.546Z,901.00
2023-05-12T09:43:15.498Z,977.00
2023-05-12T09:44:13.836Z,943.00
2023-05-12T09:45:13.563Z,994.00
2023-05-12T09:46:13.537Z,1014.00
2023-05-12T09:47:13.521Z,1016.00
2023-05-12T09:48:13.506Z,1020.00
2023-05-12T09:49:13.509Z,1017.00
2023-05-12T09:50:13.548Z,1008.00
2023-05-12T09:51:13.582Z,999.00
2023-05-12T09:52:13.623Z,992.00
2023-05-12T09:53:13.581Z,995.00
2023-05-12T09:54:13.614Z,1014.00
2023-05-12T09:55:13.598Z,1005.00
2023-05-12T09:56:13.589Z,995.00
2023-05-12T09:57:13.595Z,982.00
2023-05-12T09:58:13.584Z,976.00
2023-05-12T09:59:13.603Z,967.00
2023-05-12T10:00:28.654Z,959.00
2023-05-12T10:01:22.564Z,957.00
2023-05-12T10:02:14.634Z,955.00
2023-05-12T10:03:13.629Z,950.00
2023-05-12T10:04:13.678Z,948.00
2023-05-12T10:05:13.620Z,942.00
2023-05-12T10:06:13.566Z,939.00
2023-05-12T10:07:13.588Z,930.00
2023-05-12T10:08:13.601Z,926.00
2023-05-12T10:09:13.774Z,919.00
2023-05-12T10:10:13.590Z,915.00
2023-05-12T10:11:13.600Z,911.00
2023-05-12T10:12:13.634Z,906.00
2023-05-12T10:13:13.577Z,903.00
2023-05-12T10:14:13.598Z,903.00
2023-05-12T10:15:13.581Z,900.00
2023-05-12T10:16:13.637Z,893.00
2023-05-12T10:17:13.734Z,885.00
2023-05-12T10:18:13.897Z,881.00
2023-05-12T10:19:13.655Z,875.00
2023-05-12T10:20:13.614Z,876.00
2023-05-12T10:21:13.642Z,871.00
2023-05-12T10:22:13.658Z,865.00
2023-05-12T10:23:13.653Z,861.00
2023-05-12T10:24:13.642Z,856.00
2023-05-12T10:25:13.623Z,855.00
2023-05-12T10:26:13.641Z,852.00
2023-05-12T10:27:13.623Z,849.00
2023-05-12T10:28:13.621Z,845.00
2023-05-12T10:29:13.607Z,842.00
2023-05-12T10:30:13.607Z,837.00
2023-05-12T10:31:13.639Z,834.00
2023-05-12T10:32:13.800Z,830.00
2023-05-12T10:33:13.622Z,824.00
2023-05-12T10:34:13.576Z,819.00
2023-05-12T10:35:13.597Z,819.00
2023-05-12T10:36:13.589Z,818.00
2023-05-12T10:37:13.587Z,814.00
2023-05-12T10:38:13.600Z,812.00
2023-05-12T10:39:13.578Z,814.00
2023-05-12T10:40:13.622Z,823.00
2023-05-12T10:41:14.255Z,826.00
2023-05-12T10:42:13.629Z,828.00
2023-05-12T10:43:13.674Z,840.00
2023-05-12T10:44:13.775Z,849.00
2023-05-12T10:45:13.721Z,862.00
2023-05-12T10:46:13.773Z,869.00
2023-05-12T10:47:13.849Z,866.00
2023-05-12T10:48:13.803Z,859.00
2023-05-12T10:49:13.808Z,850.00
2023-05-12T10:50:13.785Z,849.00
2023-05-12T10:51:13.852Z,849.00
2023-05-12T10:52:13.905Z,843.00
2023-05-12T10:53:13.936Z,834.00
2023-05-12T10:54:13.956Z,832.00
2023-05-12T10:55:14.103Z,830.00
2023-05-12T10:56:15.134Z,826.00
2023-05-12T10:57:17.079Z,824.00
2023-05-12T10:58:14.394Z,820.00
2023-05-12T10:59:14.741Z,814.00
2023-05-12T11:00:14.715Z,811.00
2023-05-12T11:01:14.664Z,808.00
2023-05-12T11:02:14.602Z,809.00
2023-05-12T11:03:15.286Z,810.00
2023-05-12T11:04:14.976Z,809.00
2023-05-12T11:05:14.198Z,810.00
2023-05-12T11:06:14.288Z,809.00
2023-05-12T11:07:14.746Z,808.00
2023-05-12T11:08:14.379Z,810.00
2023-05-12T11:09:15.207Z,811.00
2023-05-12T11:10:15.177Z,807.00
2023-05-12T11:11:14.176Z,804.00
2023-05-12T11:12:14.104Z,801.00
2023-05-12T11:13:14.129Z,802.00
2023-05-12T11:14:14.275Z,803.00
2023-05-12T11:15:14.700Z,800.00
2023-05-12T11:16:14.298Z,798.00
2023-05-12T11:17:14.328Z,798.00
2023-05-12T11:18:14.520Z,794.00
2023-05-12T11:19:14.520Z,791.00
2023-05-12T11:20:14.566Z,788.00
2023-05-12T11:21:14.599Z,786.00
2023-05-12T11:22:14.687Z,782.00
2023-05-12T11:23:14.749Z,779.00
2023-05-12T11:24:14.828Z,777.00
2023-05-12T11:25:14.920Z,775.00
2023-05-12T11:26:14.998Z,773.00
2023-05-12T11:27:15.099Z,775.00
2023-05-12T11:28:15.386Z,774.00
2023-05-12T11:29:15.246Z,777.00
2023-05-12T11:30:15.288Z,776.00
2023-05-12T11:31:15.427Z,773.00
2023-05-12T11:32:15.867Z,771.00
2023-05-12T11:33:15.420Z,770.00
2023-05-12T11:34:15.921Z,764.00
2023-05-12T11:35:15.453Z,762.00
2023-05-12T11:36:15.759Z,758.00
2023-05-12T11:37:15.730Z,759.00
2023-05-12T11:38:15.617Z,759.00
2023-05-12T11:39:15.718Z,759.00
2023-05-12T11:40:15.789Z,757.00
2023-05-12T11:41:15.648Z,756.00
2023-05-12T11:42:18.597Z,756.00
2023-05-12T11:43:15.744Z,757.00
2023-05-12T11:44:15.859Z,754.00
2023-05-12T11:45:15.795Z,751.00
2023-05-12T11:46:15.778Z,753.00
2023-05-12T11:47:15.745Z,752.00
2023-05-12T11:48:15.806Z,750.00
2023-05-12T11:49:15.804Z,749.00
2023-05-12T11:50:15.833Z,748.00
2023-05-12T11:51:15.838Z,745.00
2023-05-12T11:52:15.757Z,744.00
2023-05-12T11:53:15.777Z,743.00
2023-05-12T11:54:15.780Z,742.00
2023-05-12T11:55:15.812Z,739.00
2023-05-12T11:56:15.775Z,740.00
2023-05-12T11:57:15.790Z,739.00
2023-05-12T11:58:15.815Z,739.00
2023-05-12T11:59:15.785Z,737.00
2023-05-12T12:00:15.859Z,733.00
2023-05-12T12:01:15.828Z,732.00
2023-05-12T12:02:15.856Z,734.00
2023-05-12T12:03:16.061Z,735.00
2023-05-12T12:04:15.894Z,735.00
2023-05-12T12:05:15.840Z,733.00
2023-05-12T12:06:15.806Z,731.00
2023-05-12T12:07:15.893Z,729.00
2023-05-12T12:08:15.840Z,728.00
2023-05-12T12:09:15.842Z,729.00
2023-05-12T12:10:15.882Z,728.00
2023-05-12T12:11:15.851Z,729.00
2023-05-12T12:12:15.854Z,727.00
2023-05-12T12:13:15.840Z,726.00
2023-05-12T12:14:15.869Z,728.00
2023-05-12T12:15:15.931Z,724.00
2023-05-12T12:16:15.979Z,722.00
2023-05-12T12:17:16.018Z,721.00
2023-05-12T12:18:16.034Z,722.00
2023-05-12T12:19:16.172Z,721.00
2023-05-12T12:20:16.223Z,721.00
2023-05-12T12:21:18.399Z,720.00
2023-05-12T12:22:16.283Z,718.00
2023-05-12T12:23:16.292Z,717.00
2023-05-12T12:24:16.306Z,717.00
2023-05-12T12:25:16.323Z,719.00
2023-05-12T12:26:16.281Z,719.00